Map

Track Data

SID SEASON NUMBER BASIN SUBBASIN NAME ISO_TIME NATURE LAT LON WMO_WIND WMO_PRES WMO_AGENCY TRACK_TYPE DIST2LAND LANDFALL IFLAG USA_AGENCY USA_ATCF_ID USA_LAT USA_LON USA_RECORD USA_STATUS USA_WIND USA_PRES USA_SSHS USA_R34_NE USA_R34_SE USA_R34_SW USA_R34_NW USA_R50_NE USA_R50_SE USA_R50_SW USA_R50_NW USA_R64_NE USA_R64_SE USA_R64_SW USA_R64_NW USA_POCI USA_ROCI USA_RMW USA_EYE TOKYO_LAT TOKYO_LON TOKYO_GRADE TOKYO_WIND TOKYO_PRES TOKYO_R50_DIR TOKYO_R50_LONG TOKYO_R50_SHORT TOKYO_R30_DIR TOKYO_R30_LONG TOKYO_R30_SHORT TOKYO_LAND CMA_LAT CMA_LON CMA_CAT CMA_WIND CMA_PRES HKO_LAT HKO_LON HKO_CAT HKO_WIND HKO_PRES NEWDELHI_LAT NEWDELHI_LON NEWDELHI_GRADE NEWDELHI_WIND NEWDELHI_PRES NEWDELHI_CI NEWDELHI_DP NEWDELHI_POCI REUNION_LAT REUNION_LON REUNION_TYPE REUNION_WIND REUNION_PRES REUNION_TNUM REUNION_CI REUNION_RMW REUNION_R34_NE REUNION_R34_SE REUNION_R34_SW REUNION_R34_NW REUNION_R50_NE REUNION_R50_SE REUNION_R50_SW REUNION_R50_NW REUNION_R64_NE REUNION_R64_SE REUNION_R64_SW REUNION_R64_NW BOM_LAT BOM_LON BOM_TYPE BOM_WIND BOM_PRES BOM_TNUM BOM_CI BOM_RMW BOM_R34_NE BOM_R34_SE BOM_R34_SW BOM_R34_NW BOM_R50_NE BOM_R50_SE BOM_R50_SW BOM_R50_NW BOM_R64_NE BOM_R64_SE BOM_R64_SW BOM_R64_NW BOM_ROCI BOM_POCI BOM_EYE BOM_POS_METHOD BOM_PRES_METHOD NADI_LAT NADI_LON NADI_CAT NADI_WIND NADI_PRES WELLINGTON_LAT WELLINGTON_LON WELLINGTON_WIND WELLINGTON_PRES DS824_LAT DS824_LON DS824_STAGE DS824_WIND DS824_PRES TD9636_LAT TD9636_LON TD9636_STAGE TD9636_WIND TD9636_PRES TD9635_LAT TD9635_LON TD9635_WIND TD9635_PRES TD9635_ROCI NEUMANN_LAT NEUMANN_LON NEUMANN_CLASS NEUMANN_WIND NEUMANN_PRES MLC_LAT MLC_LON MLC_CLASS MLC_WIND MLC_PRES USA_GUST BOM_GUST BOM_GUST_PER REUNION_GUST REUNION_GUST_PER USA_SEAHGT USA_SEARAD_NE USA_SEARAD_SE USA_SEARAD_SW USA_SEARAD_NW STORM_SPEED STORM_DIR
1979229N14169 1979 71 WP MM NOT_NAMED 1979-08-17 00:00:00 TS 14.2000 168.600 spur-merge 2672 2672 __O___________ -1 14.2000 168.600 0 19 1008 9 20
1979229N14169 1979 71 WP MM NOT_NAMED 1979-08-17 03:00:00 TS 14.6401 168.767 spur-merge 2721 2721 __P___________ -1 14.6401 168.767 0 19 1008 8 23
1979229N14169 1979 71 WP MM NOT_NAMED 1979-08-17 06:00:00 TS 14.9000 168.900 spur-merge 2754 2754 __O___________ -1 14.9000 168.900 0 19 1008 3 37
1979229N14169 1979 71 WP MM NOT_NAMED 1979-08-17 09:00:00 TS 14.8924 168.960 spur-merge 2761 2754 __P___________ -1 14.8924 168.960 0 19 1008 0 0
1979229N14169 1979 71 WP MM NOT_NAMED 1979-08-17 12:00:00 TS 14.9000 168.900 spur-merge 2754 2754 __O___________ -1 14.9000 168.900 0 19 1008 5 317
1979229N14169 1979 71 WP MM NOT_NAMED 1979-08-17 15:00:00 TS 15.2327 168.635 spur-merge 2758 2758 __P___________ -1 15.2327 168.635 0 21 1007 9 329
1979229N14169 1979 71 WP MM NOT_NAMED 1979-08-17 18:00:00 TS 15.7000 168.400 spur-merge 2788 2788 __O___________ -1 15.7000 168.400 1 23 1006 9 347
1979229N14169 1979 71 WP MM NOT_NAMED 1979-08-17 21:00:00 TS 16.1424 168.425 spur-merge 2822 2822 __P___________ -1 16.1424 168.425 1 26 1005 9 12
1979229N14169 1979 71 WP MM NOT_NAMED 1979-08-18 00:00:00 TS 16.6000 168.600 spur-merge 2879 2879 __O___________ -1 16.6000 168.600 1 29 1004 11 28
1979229N14169 1979 71 WP MM NOT_NAMED 1979-08-18 03:00:00 TS 17.0875 168.947 spur-merge 2943 2943 __P___________ -1 17.0875 168.947 1 29 1004 10 28
1979229N14169 1979 71 WP MM NOT_NAMED 1979-08-18 06:00:00 TS 17.5000 169.100 spur-merge 2991 2981 __O___________ -1 17.5000 169.100 1 29 1004 7 338
1979229N14169 1979 71 WP MM NOT_NAMED 1979-08-18 09:00:00 TS 17.7604 168.663 spur-merge 2990 2952 __P___________ -1 17.7604 168.663 1 26 1005 11 291
1979229N14169 1979 71 WP MM NOT_NAMED 1979-08-18 12:00:00 TS 17.9000 168.000 spur-merge 2952 2920 __O___________ -1 17.9000 168.000 1 23 1006 11 277
1979229N14169 1979 71 WP MM NOT_NAMED 1979-08-18 15:00:00 TS 17.9048 167.492 spur-merge 2920 2895 __P___________ -1 17.9048 167.492 1 23 1006 10 276
1979229N14169 1979 71 WP MM NOT_NAMED 1979-08-18 18:00:00 TS 18.0000 167.000 spur-merge 2898 2898 __O___________ -1 18.0000 167.000 1 23 1006 11 304
1979229N14169 1979 71 WP MM NOT_NAMED 1979-08-18 21:00:00 TS 18.4918 166.561 spur-merge 2919 2913 __P___________ -1 18.4918 166.561 1 23 1006 14 317
1979229N14169 1979 71 WP MM NOT_NAMED 1979-08-19 00:00:00 TS 19.0000 166.000 spur-merge 2930 2903 __O___________ -1 19.0000 166.000 1 23 1006 15 297
1979229N14169 1979 71 WP MM NOT_NAMED 1979-08-19 03:00:00 TS 19.1907 165.130 spur-merge 2897 2848 __P___________ -1 19.1907 165.130 1 23 1006 17 277
1979229N14169 1979 71 WP MM NOT_NAMED 1979-08-19 06:00:00 TS 19.2000 164.200 spur-merge 2848 2811 __O___________ -1 19.2000 164.200 1 23 1006 16 270
1979229N14169 1979 71 WP MM NOT_NAMED 1979-08-19 09:00:00 TS 19.1894 163.463 spur-merge 2811 2757 __P___________ -1 19.1198 163.440 1 23 1006 13 261
1979229N14169 1979 71 WP MM NOT_NAMED 1979-08-19 12:00:00 TS 19.0000 162.800 spur-merge 2757 __O___________ -1 19.0000 162.800 1 23 1006 13 253

Digital Typhoon Data and Search

About IBTrACS Database

This database is a web-friendly format of International Best Track Archive for Climate Stewardship (IBTrACS), a global best track data archive curated by NOAA dating back to 1842.

Updated: 2021-12-03